Time;durP1;ratioP1;P1;durP2;ratioP2;P2;SDS_P1;SDS_P2;PMS_P1;PMS_P2;Temp;Humidity;BMP_temperature;BMP_pressure;BME280_temperature;BME280_humidity;BME280_pressure;Samples;Min_cycle;Max_cycle;Signal;HPM_P1;HPM_P2
2023/03/24 00:00:13;;;;;;;19.93;10.83;;;;;;;10.14;63.67;100249.34;1432625;91;21356;-76
2023/03/24 00:02:42;;;;;;;14.87;9.73;;;;;;;10.11;63.65;100248.31;1451202;89;21346;-77
2023/03/24 00:05:13;;;;;;;22.27;11.37;;;;;;;10.09;64.33;100248.95;1425401;91;22494;-77
2023/03/24 00:07:40;;;;;;;25.47;9.90;;;;;;;10.03;65.49;100248.22;1447912;90;22314;-77
2023/03/24 00:10:11;;;;;;;17.80;11.03;;;;;;;9.93;66.10;100253.08;1456901;90;21833;-77
2023/03/24 00:12:38;;;;;;;17.63;10.67;;;;;;;9.86;66.20;100261.73;1446451;89;22300;-77
2023/03/24 00:15:08;;;;;;;13.80;9.43;;;;;;;9.80;66.07;100260.52;1449492;89;21530;-78
2023/03/24 00:17:35;;;;;;;;;;;;;;;9.74;65.65;100259.78;1435930;91;21552;-77
2023/03/24 00:20:15;;;;;;;13.53;9.97;;;;;;;9.68;65.76;100253.27;1424235;92;20334;-77
2023/03/24 00:22:48;;;;;;;15.48;10.40;;;;;;;9.64;65.26;100254.55;1455171;88;21294;-77
2023/03/24 00:25:13;;;;;;;16.45;10.72;;;;;;;9.58;65.37;100252.95;1453738;89;21449;-78
2023/03/24 00:27:40;;;;;;;16.03;11.60;;;;;;;9.54;65.53;100248.46;1457591;89;21390;-78
2023/03/24 00:30:10;;;;;;;18.43;12.53;;;;;;;9.53;65.67;100243.34;1449814;89;21634;-77
2023/03/24 00:32:37;;;;;;;19.43;12.63;;;;;;;9.52;65.94;100248.26;1447153;90;21412;-79
2023/03/24 00:35:07;;;;;;;18.70;12.23;;;;;;;9.51;66.17;100250.56;1444332;89;21554;-78
2023/03/24 00:37:36;;;;;;;19.02;10.98;;;;;;;9.48;66.92;100241.95;1452120;89;21880;-78
2023/03/24 00:40:07;;;;;;;14.43;10.20;;;;;;;9.46;67.84;100245.21;1453262;89;22399;-78
2023/03/24 00:42:35;;;;;;;18.50;9.27;;;;;;;9.47;68.10;100250.86;1459015;89;22359;-77
2023/03/24 00:45:04;;;;;;;32.33;20.20;;;;;;;9.47;68.22;100247.39;1424208;91;21466;-76
2023/03/24 00:47:35;;;;;;;38.33;20.93;;;;;;;9.45;68.42;100248.84;1446138;90;21531;-78
2023/03/24 00:50:01;;;;;;;37.45;21.65;;;;;;;9.43;68.56;100249.47;1445218;90;22402;-78
2023/03/24 00:52:32;;;;;;;19.90;13.87;;;;;;;9.44;67.98;100239.27;1450082;89;22062;-78
2023/03/24 00:54:58;;;;;;;21.63;10.83;;;;;;;9.45;68.03;100236.95;1459701;89;22248;-78
2023/03/24 00:57:25;;;;;;;15.30;10.10;;;;;;;9.44;67.64;100239.27;1446443;90;22403;-78
2023/03/24 00:59:53;;;;;;;15.07;10.00;;;;;;;9.42;67.77;100233.28;1450241;89;21538;-78
2023/03/24 01:02:24;;;;;;;18.40;11.43;;;;;;;9.43;67.59;100230.98;1453745;89;22167;-78
2023/03/24 01:04:56;;;;;;;15.87;10.90;;;;;;;9.42;67.62;100227.17;1457111;89;21383;-78
2023/03/24 01:07:26;;;;;;;18.20;11.73;;;;;;;9.43;67.50;100225.69;1448847;89;21355;-78
2023/03/24 01:09:56;;;;;;;14.47;10.30;;;;;;;9.42;67.60;100225.36;1447343;89;22403;-77
2023/03/24 01:12:29;;;;;;;13.50;10.38;;;;;;;9.42;68.08;100229.81;1453425;90;21441;-78
2023/03/24 01:14:58;;;;;;;13.17;9.70;;;;;;;9.42;68.68;100228.50;1452400;89;22307;-78
2023/03/24 01:17:25;;;;;;;17.17;10.70;;;;;;;9.43;68.92;100228.83;1439573;90;21736;-76
2023/03/24 01:19:53;;;;;;;20.60;10.43;;;;;;;9.43;69.00;100223.55;1455336;89;21463;-78
2023/03/24 01:22:20;;;;;;;17.00;10.87;;;;;;;9.45;68.72;100224.24;1454496;89;21501;-77
2023/03/24 01:24:47;;;;;;;17.77;11.07;;;;;;;9.42;68.53;100217.44;1447237;89;21493;-77
2023/03/24 01:27:14;;;;;;;17.50;10.60;;;;;;;9.43;68.06;100213.80;1455079;89;22300;-78
2023/03/24 01:29:41;;;;;;;14.17;10.80;;;;;;;9.43;67.92;100208.52;1453356;89;21502;-79
2023/03/24 01:32:08;;;;;;;13.57;10.07;;;;;;;9.42;67.75;100201.59;1462260;89;21316;-78
2023/03/24 01:34:35;;;;;;;14.80;9.60;;;;;;;9.41;67.69;100198.61;1450305;89;21539;-78
2023/03/24 01:37:02;;;;;;;17.33;9.83;;;;;;;9.41;67.59;100199.94;1423290;91;21393;-78
2023/03/24 01:39:28;;;;;;;14.23;9.27;;;;;;;9.40;67.56;100198.25;1452276;88;22447;-79
2023/03/24 01:41:55;;;;;;;20.20;10.57;;;;;;;9.37;67.58;100199.03;1446361;89;21494;-79
2023/03/24 01:44:36;;;;;;;11.63;9.53;;;;;;;9.33;67.68;100197.19;1446022;89;21457;-78
2023/03/24 01:47:18;;;;;;;14.90;10.68;;;;;;;9.33;67.76;100204.28;1417944;91;21901;-79
2023/03/24 01:49:55;;;;;;;20.20;10.10;;;;;;;9.29;67.66;100208.17;1447464;88;21353;-78
2023/03/24 01:52:26;;;;;;;16.13;10.27;;;;;;;9.29;68.35;100210.81;1450673;89;21603;-78
2023/03/24 01:54:58;;;;;;;18.50;10.57;;;;;;;9.28;68.37;100199.41;1446074;90;22815;-81
2023/03/24 01:57:30;;;;;;;13.43;10.13;;;;;;;9.30;68.54;100207.21;1451587;89;21610;-80
2023/03/24 02:00:01;;;;;;;17.80;10.70;;;;;;;9.32;68.28;100203.45;1458158;90;21412;-81
2023/03/24 02:02:28;;;;;;;17.00;10.60;;;;;;;9.32;67.94;100206.09;1451834;90;21426;-80
2023/03/24 02:05:02;;;;;;;21.87;13.23;;;;;;;9.33;67.86;100202.47;1452499;90;22456;-80
2023/03/24 02:07:55;;;;;;;18.37;11.20;;;;;;;9.32;67.96;100203.45;1459325;89;21346;-79
2023/03/24 02:10:23;;;;;;;14.57;11.30;;;;;;;9.31;67.86;100197.80;1456439;89;21353;-80
2023/03/24 02:12:50;;;;;;;18.53;10.93;;;;;;;9.28;68.16;100199.91;1447214;89;21566;-80
2023/03/24 02:15:29;;;;;;;16.67;11.40;;;;;;;9.22;68.14;100202.64;1453514;89;21339;-78
2023/03/24 02:18:29;;;;;;;17.70;10.83;;;;;;;9.18;67.98;100207.88;1456595;90;21397;-80
2023/03/24 02:21:40;;;;;;;16.60;10.93;;;;;;;9.10;68.27;100201.16;1453018;89;21375;-80
2023/03/24 02:24:54;;;;;;;15.83;11.97;;;;;;;9.03;68.42;100206.16;1449145;90;22476;-80
2023/03/24 02:27:42;;;;;;;15.53;10.87;;;;;;;8.98;68.43;100203.14;1449991;89;22315;-79
2023/03/24 02:30:20;;;;;;;18.97;11.77;;;;;;;8.96;68.78;100203.76;1459432;89;21538;-81
2023/03/24 02:33:24;;;;;;;14.43;10.27;;;;;;;8.95;69.18;100196.83;1457451;89;21457;-80
2023/03/24 02:36:42;;;;;;;17.73;11.30;;;;;;;8.95;69.10;100194.19;1452411;89;21576;-80
2023/03/24 02:39:37;;;;;;;16.80;11.60;;;;;;;8.93;68.90;100192.99;1452356;89;21419;-78
2023/03/24 02:42:20;;;;;;;21.67;12.13;;;;;;;8.91;68.78;100197.58;1454202;90;22416;-77
2023/03/24 02:45:19;;;;;;;21.50;12.43;;;;;;;8.87;68.66;100189.61;1449782;89;21309;-78
2023/03/24 02:48:11;;;;;;;17.53;13.10;;;;;;;8.82;68.74;100194.47;1442327;89;21464;-78
2023/03/24 02:50:49;;;;;;;18.73;12.40;;;;;;;8.74;68.83;100193.03;1448047;89;21534;-78
2023/03/24 02:53:46;;;;;;;18.97;12.63;;;;;;;8.66;68.73;100187.62;1448236;89;21374;-77
2023/03/24 02:56:18;;;;;;;20.63;13.37;;;;;;;8.59;68.79;100188.19;1450594;90;21471;-77
2023/03/24 02:58:53;;;;;;;23.57;13.87;;;;;;;8.54;69.21;100195.68;1455908;90;21464;-77
2023/03/24 03:01:30;;;;;;;17.17;12.87;;;;;;;8.50;69.75;100194.31;1450855;89;21567;-78
2023/03/24 03:03:55;;;;;;;19.43;13.90;;;;;;;8.46;69.99;100187.66;1455389;89;21660;-78
2023/03/24 03:06:35;;;;;;;17.30;13.13;;;;;;;8.45;70.04;100192.56;1452304;89;22366;-76
2023/03/24 03:09:13;;;;;;;20.10;13.15;;;;;;;8.45;70.20;100191.73;1440390;89;21354;-78
2023/03/24 03:11:44;;;;;;;20.03;14.20;;;;;;;8.42;70.07;100186.25;1450207;89;21641;-80
2023/03/24 03:14:16;;;;;;;;;;;;;;;8.38;70.03;100184.85;1451909;89;21316;-81
2023/03/24 03:16:53;;;;;;;24.00;14.47;;;;;;;8.34;70.49;100182.13;1452792;90;20276;-80
2023/03/24 03:19:42;;;;;;;26.43;15.20;;;;;;;8.31;70.08;100179.77;1451115;89;22673;-79
2023/03/24 03:22:20;;;;;;;23.40;13.93;;;;;;;8.27;70.00;100176.59;1436121;89;21509;-79
2023/03/24 03:24:51;;;;;;;22.13;15.47;;;;;;;8.24;70.27;100175.55;1449303;89;21746;-79
2023/03/24 03:27:38;;;;;;;18.90;13.83;;;;;;;8.22;70.29;100177.48;1454339;89;21493;-80
2023/03/24 03:30:13;;;;;;;20.07;14.37;;;;;;;8.20;70.54;100175.95;1453020;89;22266;-80
2023/03/24 03:32:54;;;;;;;23.70;15.60;;;;;;;8.20;70.66;100174.62;1451798;89;21583;-80
2023/03/24 03:35:29;;;;;;;23.98;14.80;;;;;;;8.21;71.05;100173.68;1456515;89;21589;-81
2023/03/24 03:38:13;;;;;;;20.07;14.37;;;;;;;8.21;71.35;100172.36;1455066;90;21434;-79
2023/03/24 03:40:48;;;;;;;22.93;13.87;;;;;;;8.20;71.11;100174.62;1461782;90;21559;-80
2023/03/24 03:43:15;;;;;;;20.37;15.23;;;;;;;8.19;70.95;100176.44;1450636;89;22359;-78
2023/03/24 03:45:41;;;;;;;21.60;14.93;;;;;;;8.19;70.86;100179.57;1450628;89;22422;-79
2023/03/24 03:48:08;;;;;;;24.40;15.10;;;;;;;8.16;71.42;100177.21;1457420;89;22565;-79
2023/03/24 03:50:36;;;;;;;22.20;15.20;;;;;;;8.10;71.73;100184.69;1456417;89;21426;-79
2023/03/24 03:53:04;;;;;;;21.57;14.57;;;;;;;8.00;72.24;100182.55;1451592;89;21560;-79
2023/03/24 03:55:31;;;;;;;21.17;15.10;;;;;;;7.92;74.02;100191.61;1449049;89;22507;-78
2023/03/24 03:57:58;;;;;;;21.60;14.03;;;;;;;7.85;73.42;100183.89;1442459;90;21412;-79
2023/03/24 04:00:24;;;;;;;19.33;14.70;;;;;;;7.82;73.11;100186.31;1454863;89;21531;-79
2023/03/24 04:03:29;;;;;;;18.60;14.33;;;;;;;7.80;73.32;100187.44;1452129;89;21457;-78
2023/03/24 04:06:33;;;;;;;18.53;13.80;;;;;;;7.78;73.83;100188.88;1448242;90;22447;-79
2023/03/24 04:09:29;;;;;;;23.47;14.73;;;;;;;7.74;73.31;100189.27;1451764;89;21340;-80
2023/03/24 04:12:19;;;;;;;20.30;15.20;;;;;;;7.67;73.57;100187.18;1451737;90;21501;-79
2023/03/24 04:14:55;;;;;;;24.72;15.58;;;;;;;7.60;73.70;100186.06;1457121;89;21449;-78
2023/03/24 04:17:42;;;;;;;22.37;14.80;;;;;;;7.55;73.41;100187.44;1446064;89;22587;-79
2023/03/24 04:20:21;;;;;;;24.13;16.10;;;;;;;7.50;73.27;100183.88;1453855;90;22380;-80
2023/03/24 04:23:29;;;;;;;23.00;15.93;;;;;;;7.44;72.87;100194.45;1459480;89;21316;-79
2023/03/24 04:26:13;;;;;;;22.30;16.37;;;;;;;7.41;73.37;100184.68;1451316;89;21612;-80
2023/03/24 04:28:51;;;;;;;23.30;13.20;;;;;;;7.39;74.29;100182.66;1452343;89;21389;-80
2023/03/24 04:31:27;;;;;;;19.63;13.57;;;;;;;7.39;74.40;100191.41;1452568;89;21553;-80
2023/03/24 04:34:04;;;;;;;21.27;15.00;;;;;;;7.41;74.52;100201.80;1448537;90;21411;-80
2023/03/24 04:36:41;;;;;;;23.17;16.43;;;;;;;7.41;74.36;100187.31;1450439;90;21619;-79
2023/03/24 04:39:12;;;;;;;22.50;16.03;;;;;;;7.40;74.68;100183.85;1453359;89;21434;-79
2023/03/24 04:41:40;;;;;;;22.33;15.37;;;;;;;7.41;74.71;100184.68;1450033;89;21449;-79
2023/03/24 04:44:06;;;;;;;28.40;16.53;;;;;;;7.41;74.37;100187.31;1451428;89;21487;-79
2023/03/24 04:46:33;;;;;;;27.30;17.50;;;;;;;7.41;74.81;100186.00;1456525;89;21435;-79
2023/03/24 04:49:02;;;;;;;25.63;16.43;;;;;;;7.41;75.38;100184.19;1444690;90;22255;-79
2023/03/24 04:51:28;;;;;;;28.13;17.03;;;;;;;7.43;75.41;100195.92;1448748;89;21366;-78
2023/03/24 04:53:54;;;;;;;20.73;14.70;;;;;;;7.44;75.67;100198.89;1444809;90;21575;-77
2023/03/24 04:56:42;;;;;;;23.43;15.37;;;;;;;7.45;75.98;100196.14;1452863;90;22262;-77
2023/03/24 04:59:08;;;;;;;21.27;14.77;;;;;;;7.52;75.99;100194.29;1457372;89;21449;-76
2023/03/24 05:01:36;;;;;;;22.13;16.03;;;;;;;7.60;76.06;100191.83;1452453;89;21375;-77
2023/03/24 05:04:04;;;;;;;24.57;17.27;;;;;;;7.66;75.95;100196.06;1456203;90;21508;-77
2023/03/24 05:06:30;;;;;;;29.77;17.97;;;;;;;7.71;75.64;100190.86;1449298;90;21478;-80
2023/03/24 05:08:58;;;;;;;25.17;16.10;;;;;;;7.76;75.64;100193.93;1457397;89;21575;-79
2023/03/24 05:11:26;;;;;;;28.93;17.03;;;;;;;7.77;75.46;100196.91;1458484;89;21257;-80
2023/03/24 05:13:53;;;;;;;23.00;17.07;;;;;;;7.79;75.26;100199.75;1451918;89;21376;-80
2023/03/24 05:16:20;;;;;;;25.80;16.97;;;;;;;7.82;75.27;100189.44;1457502;90;21420;-81
2023/03/24 05:18:47;;;;;;;23.13;17.07;;;;;;;7.83;75.44;100200.34;1457009;89;21397;-79
2023/03/24 05:21:13;;;;;;;31.30;16.03;;;;;;;7.84;76.15;100197.55;1448623;89;21434;-79
2023/03/24 05:23:39;;;;;;;28.70;14.90;;;;;;;7.86;76.45;100205.34;1450140;90;21538;-79
2023/03/24 05:26:06;;;;;;;21.47;15.83;;;;;;;7.90;75.99;100207.55;1456860;89;21397;-79
2023/03/24 05:28:32;;;;;;;24.77;15.57;;;;;;;7.95;76.36;100203.69;1446813;89;21368;-77
2023/03/24 05:31:00;;;;;;;21.70;15.77;;;;;;;7.99;76.30;100208.53;1451784;89;21398;-78
2023/03/24 05:33:26;;;;;;;23.30;16.83;;;;;;;8.03;75.97;100211.27;1449421;89;21390;-80
2023/03/24 05:35:52;;;;;;;24.77;16.60;;;;;;;8.07;75.70;100215.77;1452522;90;21479;-80
2023/03/24 05:38:18;;;;;;;23.40;16.70;;;;;;;8.10;75.70;100215.49;1455012;90;21471;-78
2023/03/24 05:40:45;;;;;;;30.27;18.60;;;;;;;8.10;75.64;100209.73;1450485;89;22322;-79
2023/03/24 05:43:11;;;;;;;31.47;18.00;;;;;;;8.10;75.63;100208.41;1451081;89;21413;-79
2023/03/24 05:45:38;;;;;;;28.60;18.53;;;;;;;8.09;75.50;100209.39;1448423;90;21382;-80
2023/03/24 05:48:05;;;;;;;30.80;19.57;;;;;;;8.10;75.41;100209.73;1445731;90;21434;-79
2023/03/24 05:50:31;;;;;;;28.90;18.20;;;;;;;8.12;75.68;100213.08;1462290;89;22352;-79
2023/03/24 05:52:57;;;;;;;31.90;18.10;;;;;;;8.13;76.03;100204.19;1452636;89;21382;-78
2023/03/24 05:55:24;;;;;;;26.27;17.93;;;;;;;8.18;76.08;100206.91;1454950;89;21556;-78
2023/03/24 05:57:50;;;;;;;26.33;16.13;;;;;;;8.22;76.15;100213.56;1453690;90;21382;-79
2023/03/24 06:00:18;;;;;;;23.83;17.47;;;;;;;8.26;76.05;100215.80;1451465;89;21627;-79
2023/03/24 06:02:45;;;;;;;34.97;19.80;;;;;;;8.31;76.12;100216.20;1456782;89;21361;-78
2023/03/24 06:05:12;;;;;;;35.47;20.23;;;;;;;8.38;75.84;100221.77;1454028;89;21589;-79
2023/03/24 06:07:45;;;;;;;30.00;21.20;;;;;;;8.45;75.77;100220.26;1454826;90;21486;-79
2023/03/24 06:10:10;;;;;;;34.03;21.50;;;;;;;8.52;75.52;100225.34;1452044;89;21464;-79
2023/03/24 06:12:37;;;;;;;28.77;20.77;;;;;;;8.59;75.41;100225.61;1454641;89;21360;-79
2023/03/24 06:15:16;;;;;;;35.93;21.67;;;;;;;8.65;75.30;100230.81;1456938;89;21316;-80
2023/03/24 06:17:41;;;;;;;33.47;19.33;;;;;;;8.73;74.97;100230.45;1463421;89;21412;-82
2023/03/24 06:20:14;;;;;;;30.03;18.37;;;;;;;8.80;75.29;100225.44;1447468;89;21575;-81
2023/03/24 06:22:37;;;;;;;26.60;17.87;;;;;;;8.91;75.26;100229.25;1445708;89;22327;-81
2023/03/24 06:25:04;;;;;;;25.77;17.80;;;;;;;9.08;75.33;100230.82;1454847;89;21458;-82
2023/03/24 06:27:31;;;;;;;33.63;21.70;;;;;;;9.22;75.02;100222.45;1461028;89;21361;-82
2023/03/24 06:29:57;;;;;;;32.10;19.73;;;;;;;9.39;74.68;100224.83;1452634;89;21383;-81
2023/03/24 06:32:23;;;;;;;31.00;19.20;;;;;;;9.53;74.45;100219.56;1463910;89;21596;-81
2023/03/24 06:34:50;;;;;;;30.60;21.33;;;;;;;9.64;74.00;100214.09;1453707;89;21353;-80
2023/03/24 06:37:16;;;;;;;35.33;21.83;;;;;;;9.77;73.69;100213.23;1453261;90;22271;-81
2023/03/24 06:39:42;;;;;;;31.40;20.50;;;;;;;9.90;73.28;100212.91;1448157;89;21397;-82
2023/03/24 06:46:09;;;;;;;31.13;15.80;;;;;;;10.14;72.66;100213.64;1453034;90;22997;-80
2023/03/24 06:48:37;;;;;;;26.10;14.37;;;;;;;10.38;72.09;100218.36;1445036;89;21339;-81
2023/03/24 06:51:06;;;;;;;23.13;13.83;;;;;;;10.56;71.60;100219.70;1445077;89;21556;-80
2023/03/24 06:53:36;;;;;;;23.00;14.70;;;;;;;10.73;71.11;100217.52;1453812;89;21578;-80
2023/03/24 06:56:03;;;;;;;24.05;13.03;;;;;;;10.91;70.70;100217.48;1458648;89;21412;-80
2023/03/24 06:58:29;;;;;;;20.57;12.77;;;;;;;11.07;69.83;100228.66;1451814;89;21368;-81
2023/03/24 07:00:56;;;;;;;20.77;12.60;;;;;;;11.18;69.21;100224.92;1451621;89;22381;-80
2023/03/24 07:03:23;;;;;;;27.47;11.80;;;;;;;11.29;68.58;100220.19;1448238;89;21353;-80
2023/03/24 07:05:50;;;;;;;26.33;12.87;;;;;;;11.48;68.29;100220.97;1450995;89;21500;-79
2023/03/24 07:08:18;;;;;;;19.73;12.20;;;;;;;11.60;67.63;100222.34;1453314;89;21375;-79
2023/03/24 07:10:44;;;;;;;14.27;11.07;;;;;;;11.68;67.11;100232.98;1454552;89;22211;-81
2023/03/24 07:13:10;;;;;;;20.57;12.17;;;;;;;11.77;66.85;100219.73;1449322;89;21536;-82
2023/03/24 07:15:37;;;;;;;21.50;12.83;;;;;;;11.85;66.66;100225.06;1450567;89;21391;-81
2023/03/24 07:18:03;;;;;;;46.03;22.87;;;;;;;11.97;66.40;100221.19;1448136;89;21382;-82
2023/03/24 07:20:29;;;;;;;36.33;17.80;;;;;;;12.03;65.90;100227.16;1453461;90;21324;-82
2023/03/24 07:22:57;;;;;;;67.90;31.60;;;;;;;12.10;65.78;100225.50;1454100;89;22456;-82
2023/03/24 07:25:24;;;;;;;21.40;14.97;;;;;;;12.19;65.70;100227.17;1452580;89;21449;-83
2023/03/24 07:27:54;;;;;;;20.30;12.03;;;;;;;12.30;65.89;100222.06;1445425;89;21368;-83
2023/03/24 07:30:22;;;;;;;14.45;11.08;;;;;;;12.42;65.88;100225.23;1423910;89;21505;-82
2023/03/24 07:32:48;;;;;;;15.60;10.33;;;;;;;12.57;65.83;100222.27;1452118;89;22233;-83
2023/03/24 07:35:16;;;;;;;17.73;11.40;;;;;;;12.77;65.64;100223.24;1453003;90;21421;-83
2023/03/24 07:37:43;;;;;;;20.17;10.63;;;;;;;12.98;65.23;100224.90;1452478;89;22271;-82
2023/03/24 07:40:12;;;;;;;14.07;10.23;;;;;;;13.09;63.24;100215.25;1452544;89;21909;-83
2023/03/24 07:42:41;;;;;;;21.47;11.10;;;;;;;13.20;63.22;100213.22;1449668;89;21648;-83
2023/03/24 07:45:10;;;;;;;16.00;10.17;;;;;;;13.40;63.34;100217.19;1453841;89;21397;-82
2023/03/24 07:47:38;;;;;;;13.40;9.13;;;;;;;13.60;62.34;100218.12;1447012;89;21351;-90
2023/03/24 07:50:09;;;;;;;11.17;8.93;;;;;;;13.84;62.10;100219.36;1424436;91;21407;-90
2023/03/24 07:52:42;;;;;;;17.75;10.45;;;;;;;14.07;61.77;100215.88;1451869;90;21361;-90
2023/03/24 07:55:10;;;;;;;15.97;10.40;;;;;;;14.23;58.61;100214.46;1455098;89;21376;-88
2023/03/24 07:57:41;;;;;;;16.53;10.40;;;;;;;14.32;57.21;100212.06;1451216;89;21450;-89
2023/03/24 08:00:23;;;;;;;12.00;10.13;;;;;;;14.52;58.63;100207.13;1442864;90;21530;-87
2023/03/24 08:02:47;;;;;;;13.60;8.67;;;;;;;14.76;58.55;100210.58;1465417;90;21582;-91
2023/03/24 08:05:15;;;;;;;17.33;10.17;;;;;;;15.05;58.33;100209.33;1425346;91;21614;-88
2023/03/24 08:07:44;;;;;;;22.70;11.10;;;;;;;15.29;57.22;100208.23;1447975;89;21563;-88
2023/03/24 08:10:13;;;;;;;14.20;10.17;;;;;;;15.47;54.59;100205.70;1458911;89;21369;-90
2023/03/24 08:12:40;;;;;;;16.40;11.65;;;;;;;15.60;54.12;100201.88;1453536;89;22255;-90
2023/03/24 08:15:08;;;;;;;19.17;9.57;;;;;;;15.76;54.11;100199.02;1454127;89;21354;-89
2023/03/24 08:17:35;;;;;;;13.07;10.17;;;;;;;15.87;52.52;100192.38;1431564;91;21512;-88
2023/03/24 08:20:10;;;;;;;16.33;10.10;;;;;;;16.12;53.08;100186.70;1452384;88;21390;-88
2023/03/24 08:22:36;;;;;;;17.27;10.20;;;;;;;16.36;52.38;100199.67;1458462;89;21471;-94
2023/03/24 08:25:03;;;;;;;10.47;9.33;;;;;;;16.57;50.53;100186.84;1450330;90;21449;-85
2023/03/24 08:27:29;;;;;;;14.47;9.83;;;;;;;16.76;50.16;100188.52;1434176;91;22757;-84
2023/03/24 08:29:55;;;;;;;16.43;9.53;;;;;;;17.05;51.07;100188.86;1454738;88;21450;-84
2023/03/24 08:32:21;;;;;;;11.93;8.80;;;;;;;17.34;49.83;100187.80;1428957;91;21388;-86
2023/03/24 08:34:47;;;;;;;13.87;8.60;;;;;;;17.55;49.29;100185.03;1459025;90;22226;-88
2023/03/24 08:37:13;;;;;;;13.80;8.10;;;;;;;17.68;48.25;100179.42;1422343;91;21437;-89
2023/03/24 08:39:41;;;;;;;12.30;7.23;;;;;;;17.76;47.96;100178.73;1453706;90;21287;-85
2023/03/24 08:42:07;;;;;;;10.40;8.13;;;;;;;17.80;46.68;100183.19;1423233;91;21482;-88
2023/03/24 08:44:34;;;;;;;8.10;6.97;;;;;;;17.77;46.76;100171.00;1457826;89;22330;-87
2023/03/24 08:47:00;;;;;;;14.67;6.70;;;;;;;17.81;45.92;100171.48;1429759;91;21430;-86
2023/03/24 08:49:27;;;;;;;15.80;7.77;;;;;;;17.89;45.68;100167.26;1452722;88;21501;-87
2023/03/24 08:51:54;;;;;;;12.47;8.07;;;;;;;17.94;45.32;100162.13;1430809;91;21334;-85
2023/03/24 08:54:22;;;;;;;11.27;6.77;;;;;;;18.10;44.63;100163.63;1445482;90;21419;-87
2023/03/24 08:56:48;;;;;;;13.53;8.30;;;;;;;18.30;45.53;100160.13;1458136;89;21346;-88
2023/03/24 08:59:14;;;;;;;16.43;6.40;;;;;;;18.48;45.12;100154.48;1455400;90;22473;-86
2023/03/24 09:01:40;;;;;;;13.53;7.07;;;;;;;18.59;44.29;100157.59;1432528;91;21372;-83
2023/03/24 09:04:07;;;;;;;15.23;6.77;;;;;;;18.74;44.51;100148.02;1453284;89;21412;-83
2023/03/24 09:06:33;;;;;;;10.60;6.10;;;;;;;18.91;44.38;100149.23;1453913;90;21420;-83
2023/03/24 09:08:59;;;;;;;15.40;5.92;;;;;;;19.01;42.13;100144.77;1429940;91;21371;-84
2023/03/24 09:11:25;;;;;;;15.58;6.42;;;;;;;18.94;41.57;100148.30;1452594;90;21405;-84
2023/03/24 09:13:52;;;;;;;12.28;6.45;;;;;;;19.08;41.89;100136.20;1454790;90;21286;-83
2023/03/24 09:16:18;;;;;;;8.80;6.78;;;;;;;19.24;41.83;100133.04;1425232;91;22288;-83
2023/03/24 09:18:45;;;;;;;14.30;6.62;;;;;;;19.36;40.92;100134.05;1452832;88;21382;-84
2023/03/24 09:21:12;;;;;;;75.37;8.18;;;;;;;19.44;40.76;100126.78;1431357;91;21385;-82
2023/03/24 09:23:43;;;;;;;13.60;6.10;;;;;;;19.41;40.42;100128.03;1454396;88;22432;-83
2023/03/24 09:26:06;;;;;;;13.83;6.72;;;;;;;19.41;39.99;100121.84;1452121;90;21544;-83
2023/03/24 09:28:33;;;;;;;7.80;6.10;;;;;;;19.53;39.32;100120.95;1431171;91;21600;-83
2023/03/24 09:31:03;;;;;;;12.63;5.45;;;;;;;19.54;38.40;100116.43;1445056;90;22156;-84
2023/03/24 09:33:30;;;;;;;10.70;6.90;;;;;;;19.51;39.18;100115.00;1424316;91;22266;-83
2023/03/24 09:35:59;;;;;;;10.20;6.95;;;;;;;19.61;39.20;100104.60;1452692;88;21382;-84
2023/03/24 09:38:27;;;;;;;10.25;5.87;;;;;;;19.65;39.19;100108.20;1426036;91;21379;-84
2023/03/24 09:41:02;;;;;;;9.03;6.10;;;;;;;19.79;38.96;100103.09;1455649;89;21647;-84
2023/03/24 09:43:42;;;;;;;8.63;5.70;;;;;;;19.84;38.76;100106.77;1424723;91;21593;-86
2023/03/24 09:46:16;;;;;;;7.62;5.47;;;;;;;19.99;38.13;100102.97;1452611;89;21412;-86
2023/03/24 09:48:54;;;;;;;44.25;8.88;;;;;;;20.06;37.49;100101.07;1426386;91;21385;-85
2023/03/24 09:51:27;;;;;;;7.10;6.00;;;;;;;20.13;37.89;100095.12;1461124;88;22402;-86
2023/03/24 09:54:21;;;;;;;13.35;5.78;;;;;;;20.13;38.09;100091.08;1424640;91;22080;-85
2023/03/24 09:56:48;;;;;;;13.20;5.80;;;;;;;20.17;37.40;100084.25;1451478;90;21441;-86
2023/03/24 09:59:22;;;;;;;7.37;5.72;;;;;;;20.21;37.58;100081.94;1437222;91;21483;-85
2023/03/24 10:01:49;;;;;;;12.10;5.92;;;;;;;20.33;37.62;100080.70;1451764;89;21434;-86
2023/03/24 10:04:21;;;;;;;9.20;6.33;;;;;;;20.42;37.93;100080.72;1452366;89;21451;-86
2023/03/24 10:06:52;;;;;;;9.00;6.70;;;;;;;20.54;37.82;100073.59;1431732;91;21370;-85
2023/03/24 10:09:30;;;;;;;11.25;5.78;;;;;;;20.62;36.54;100084.08;1452543;89;22336;-84
2023/03/24 10:12:31;;;;;;;7.80;5.80;;;;;;;20.57;36.08;100079.91;1450644;89;22211;-87
2023/03/24 10:15:11;;;;;;;7.65;5.70;;;;;;;20.64;36.70;100080.65;1433605;91;22115;-85
2023/03/24 10:17:50;;;;;;;;;;;;;;;20.77;36.52;100077.52;1455419;90;21456;-86
2023/03/24 10:20:40;;;;;;;6.65;5.37;;;;;;;20.77;36.66;100070.80;1448724;90;20246;-87
2023/03/24 10:23:18;;;;;;;11.80;5.70;;;;;;;21.03;36.88;100059.77;1428888;91;21585;-86
2023/03/24 10:25:59;;;;;;;11.05;5.85;;;;;;;21.00;34.74;100057.49;1448111;90;21441;-86
2023/03/24 10:28:42;;;;;;;9.60;5.47;;;;;;;21.25;35.91;100059.28;1449527;90;21368;-85
2023/03/24 10:31:13;;;;;;;8.98;5.42;;;;;;;21.33;35.51;100052.24;1449741;90;21761;-85
2023/03/24 10:33:42;;;;;;;;;;;;;;;21.42;35.86;100053.59;1428466;91;22104;-84
2023/03/24 10:36:19;;;;;;;154.40;14.95;;;;;;;21.48;35.31;100055.38;1423394;92;20392;-86
2023/03/24 10:38:47;;;;;;;9.73;6.80;;;;;;;21.42;34.40;100049.56;1459024;89;22360;-86
2023/03/24 10:41:18;;;;;;;7.80;5.22;;;;;;;21.46;35.11;100045.34;1456429;89;21453;-86
2023/03/24 10:43:45;;;;;;;;;;;;;;;21.46;33.20;100045.34;1422828;91;21537;-86
2023/03/24 10:46:19;;;;;;;5.65;5.08;;;;;;;21.50;34.06;100039.82;1421911;92;20252;-86
2023/03/24 10:48:49;;;;;;;12.65;4.83;;;;;;;21.50;34.06;100039.82;1459595;90;21338;-85
2023/03/24 10:51:26;;;;;;;6.50;5.50;;;;;;;21.70;33.42;100047.61;1451952;89;22138;-85
2023/03/24 10:54:10;;;;;;;7.55;5.30;;;;;;;21.71;31.44;100041.16;1427860;91;21386;-87
2023/03/24 10:56:47;;;;;;;17.70;5.00;;;;;;;21.72;32.14;100033.11;1425326;90;21560;-87
2023/03/24 10:59:31;;;;;;;8.85;5.28;;;;;;;21.83;32.38;100033.11;1425098;91;21525;-85
2023/03/24 11:02:01;;;;;;;8.13;5.35;;;;;;;21.96;32.80;100034.26;1456149;88;21473;-86
2023/03/24 11:04:29;;;;;;;7.50;5.35;;;;;;;21.83;33.38;100027.72;1428558;91;21578;-85
2023/03/24 11:07:13;;;;;;;6.08;4.95;;;;;;;21.82;32.80;100027.44;1456986;88;22456;-85
2023/03/24 11:09:49;;;;;;;10.88;4.45;;;;;;;21.79;32.61;100023.86;1431008;91;21370;-85
2023/03/24 11:12:25;;;;;;;7.58;5.40;;;;;;;21.63;33.48;100013.22;1432071;90;21471;-85
2023/03/24 11:14:59;;;;;;;6.42;5.28;;;;;;;21.63;33.48;100013.22;1421458;91;22896;-86
2023/03/24 11:17:22;;;;;;;13.20;6.25;;;;;;;21.70;33.13;100011.79;1453813;89;21389;-86
2023/03/24 11:19:56;;;;;;;11.80;5.15;;;;;;;21.84;33.46;100001.10;1430046;91;21364;-87
2023/03/24 11:22:23;;;;;;;8.90;5.55;;;;;;;22.02;33.05;99999.64;1448178;88;21494;-87
2023/03/24 11:24:54;;;;;;;8.95;5.08;;;;;;;22.06;33.28;99987.34;1428410;91;21423;-86
2023/03/24 11:27:20;;;;;;;;;;;;;;;22.29;33.18;99991.13;1459009;89;21516;-87
2023/03/24 11:29:53;;;;;;;11.97;5.03;;;;;;;22.48;32.07;99983.73;1452594;90;20218;-86
2023/03/24 11:32:26;;;;;;;9.98;4.70;;;;;;;22.48;32.21;99979.69;1428041;91;21528;-87
2023/03/24 11:35:11;;;;;;;6.40;4.92;;;;;;;22.62;32.28;99971.63;1440539;90;21463;-87
2023/03/24 11:37:37;;;;;;;7.62;5.17;;;;;;;22.73;32.15;99969.44;1430767;91;21460;-86
2023/03/24 11:40:18;;;;;;;8.60;4.72;;;;;;;22.70;31.71;99958.28;1457958;89;21390;-83
2023/03/24 11:43:02;;;;;;;8.90;5.05;;;;;;;22.80;31.89;99953.11;1427938;91;21474;-87
2023/03/24 11:45:41;;;;;;;8.55;4.87;;;;;;;22.90;30.73;99943.88;1460039;90;22403;-88